Patos — WDF6110 — position and weather

sailwx.info

Track history (hours):
 
Tides and Currents Weather Stations Pressure Air Temp Water Temp Dewpoint Dewpoint Depression Visibility Wind Speed Wind Dir Waves Ship Positions

Patos

Owner: Demelza Charters LLP, Bellingham, WA. More information available from US FCC via Universal Licensing System and Coast Guard Vessel Documentation Center.

Last reported at 2017-Apr-24 18:04 UTC. Time now 2017-Apr-25 02:37 UTC.
Position N 48°36' W 122°47'.

Length 16 m.

Type: Pleasure craft. MMSI: 367470750.

Date/timePositionNaut miles runAvg speedWind from/ knotsBaromVisibWave heightAir tempDewpointWater temp
2017-Apr-24 18:04N 48°36' W 122°47'1 9.3
2017-Apr-24 17:59N 48°36' W 122°48'5 9.7
2017-Apr-24 17:30N 48°34' W 122°54'5 9.8
2017-Apr-24 17:00N 48°30' W 122°58'3 5.5
2017-Apr-24 16:30N 48°32' W 123°00'0 0.6
2017-Apr-24 15:59N 48°32' W 123°01'0 0.0
2017-Apr-24 15:29N 48°32' W 123°01'0 0.0
2017-Apr-24 14:59N 48°32' W 123°01'0 0.0
2017-Apr-24 14:29N 48°32' W 123°01'0 0.0
2017-Apr-24 13:29N 48°32' W 123°01'0 0.0
2017-Apr-24 12:59N 48°32' W 123°01'0 0.0
2017-Apr-24 12:29N 48°32' W 123°01'0 0.0
2017-Apr-24 11:59N 48°32' W 123°01'0 0.0
2017-Apr-24 11:29N 48°32' W 123°01'0 0.0
2017-Apr-24 10:59N 48°32' W 123°01'0 0.0
2017-Apr-24 10:29N 48°32' W 123°01'0 0.0
2017-Apr-24 09:59N 48°32' W 123°01'0 0.0
2017-Apr-24 09:23N 48°32' W 123°01'0 0.0
2017-Apr-24 08:53N 48°32' W 123°01'0 0.0
2017-Apr-24 08:29N 48°32' W 123°01'0 0.0
2017-Apr-24 07:53N 48°32' W 123°01'0 0.0
2017-Apr-24 07:29N 48°32' W 123°01'0 0.0
2017-Apr-24 06:59N 48°32' W 123°01'0 0.0
2017-Apr-24 06:29N 48°32' W 123°01'0 0.0
2017-Apr-24 05:53N 48°32' W 123°01'0 0.0
2017-Apr-24 05:29N 48°32' W 123°01'0 0.0
2017-Apr-24 04:50N 48°32' W 123°01'0 0.0
2017-Apr-24 04:29N 48°32' W 123°01'0 0.0
2017-Apr-24 03:59N 48°32' W 123°01'0 0.0
2017-Apr-24 03:29N 48°32' W 123°01'0 0.0
2017-Apr-24 02:59N 48°32' W 123°01'0 0.0
2017-Apr-24 02:29N 48°32' W 123°01'0 0.0
2017-Apr-24 01:59N 48°32' W 123°01'0 0.0
2017-Apr-24 00:23N 48°32' W 123°01'0 0.0
2017-Apr-24 00:00N 48°32' W 123°01'7 2.4
2017-Apr-23 21:09N 48°37' W 123°09'0 0.1
2017-Apr-23 21:00N 48°37' W 123°09'  
2017-Apr-17 16:10N 48°36' W 122°49'1 7.2
2017-Apr-17 15:59N 48°35' W 122°51'7 4.9
2017-Apr-17 14:40N 48°33' W 123°00'1 5.1
2017-Apr-17 14:30N 48°32' W 123°01'0 0.0
2017-Apr-17 13:29N 48°32' W 123°01'0 0.0
2017-Apr-17 12:59N 48°32' W 123°01'0 0.0
2017-Apr-17 12:29N 48°32' W 123°01'0 0.0
2017-Apr-17 11:59N 48°32' W 123°01'0 0.0
2017-Apr-17 11:29N 48°32' W 123°01'0 0.0
2017-Apr-17 10:53N 48°32' W 123°01'0 0.0
2017-Apr-17 10:29N 48°32' W 123°01'0 0.0
2017-Apr-17 09:59N 48°32' W 123°01'0 0.0
2017-Apr-17 09:29N 48°32' W 123°01'0 0.0
2017-Apr-17 08:53N 48°32' W 123°01'0 0.0
2017-Apr-17 08:29N 48°32' W 123°01'0 0.0
2017-Apr-17 07:59N 48°32' W 123°01'0 0.0
2017-Apr-17 07:29N 48°32' W 123°01'0 0.0
2017-Apr-17 06:59N 48°32' W 123°01'0 0.0
2017-Apr-17 06:29N 48°32' W 123°01'0 0.0
2017-Apr-17 05:59N 48°32' W 123°01'0 0.0
2017-Apr-17 05:29N 48°32' W 123°01'0 0.0
2017-Apr-17 04:59N 48°32' W 123°01'0 0.0
2017-Apr-17 04:29N 48°32' W 123°01'0 0.0
2017-Apr-17 03:53N 48°32' W 123°01'0 0.0
2017-Apr-17 03:29N 48°32' W 123°01'0 0.0
2017-Apr-17 02:59N 48°32' W 123°01'0 0.0
2017-Apr-17 02:29N 48°32' W 123°01'0 0.0
2017-Apr-17 01:59N 48°32' W 123°01'0 0.0
2017-Apr-17 01:29N 48°32' W 123°01'0 0.0
2017-Apr-17 00:59N 48°32' W 123°01'0 0.0
2017-Apr-17 00:29N 48°32' W 123°01'0 0.0
2017-Apr-16 23:59N 48°32' W 123°01'0 0.0
2017-Apr-16 23:29N 48°32' W 123°01'0 0.0
2017-Apr-16 22:56N 48°32' W 123°01'0 0.0
2017-Apr-16 22:23N 48°32' W 123°01'0 0.0
2017-Apr-16 22:00N 48°32' W 123°01'0 0.0
2017-Apr-16 21:30N 48°32' W 123°01'8 4.9
2017-Apr-16 19:52N 48°38' W 123°10'2 4.9
2017-Apr-16 19:26N 48°36' W 123°12'2 1.1
2017-Apr-16 17:38N 48°37' W 123°09'0 0.0
2017-Apr-16 07:43N 48°37' W 123°10'0 0.0
2017-Apr-16 07:16N 48°37' W 123°10'0 0.0
2017-Apr-15 22:38N 48°37' W 123°09'0 0.0
2017-Apr-15 22:15N 48°37' W 123°09'1 1.9
2017-Apr-15 21:55N 48°37' W 123°10'  
Track history (hours):
 
Tides and Currents Weather Stations Pressure Air Temp Water Temp Dewpoint Dewpoint Depression Visibility Wind Speed Wind Dir Waves Ship Positions

Patos

Owner: Demelza Charters LLP, Bellingham, WA. More information available from US FCC via Universal Licensing System and Coast Guard Vessel Documentation Center.

Last reported at 2017-Apr-24 18:04 UTC. Time now 2017-Apr-25 02:37 UTC.
Position N 48°36' W 122°47'.

Length 16 m.

Type: Pleasure craft. MMSI: 367470750.

Date/timePositionNaut miles runAvg speedWind from/ knotsBaromVisibWave heightAir tempDewpointWater temp
2017-Apr-24 18:04N 48°36' W 122°47'1 9.3
2017-Apr-24 17:59N 48°36' W 122°48'5 9.7
2017-Apr-24 17:30N 48°34' W 122°54'5 9.8
2017-Apr-24 17:00N 48°30' W 122°58'3 5.5
2017-Apr-24 16:30N 48°32' W 123°00'0 0.6
2017-Apr-24 15:59N 48°32' W 123°01'0 0.0
2017-Apr-24 15:29N 48°32' W 123°01'0 0.0
2017-Apr-24 14:59N 48°32' W 123°01'0 0.0
2017-Apr-24 14:29N 48°32' W 123°01'0 0.0
2017-Apr-24 13:29N 48°32' W 123°01'0 0.0
2017-Apr-24 12:59N 48°32' W 123°01'0 0.0
2017-Apr-24 12:29N 48°32' W 123°01'0 0.0
2017-Apr-24 11:59N 48°32' W 123°01'0 0.0
2017-Apr-24 11:29N 48°32' W 123°01'0 0.0
2017-Apr-24 10:59N 48°32' W 123°01'0 0.0
2017-Apr-24 10:29N 48°32' W 123°01'0 0.0
2017-Apr-24 09:59N 48°32' W 123°01'0 0.0
2017-Apr-24 09:23N 48°32' W 123°01'0 0.0
2017-Apr-24 08:53N 48°32' W 123°01'0 0.0
2017-Apr-24 08:29N 48°32' W 123°01'0 0.0
2017-Apr-24 07:53N 48°32' W 123°01'0 0.0
2017-Apr-24 07:29N 48°32' W 123°01'0 0.0
2017-Apr-24 06:59N 48°32' W 123°01'0 0.0
2017-Apr-24 06:29N 48°32' W 123°01'0 0.0
2017-Apr-24 05:53N 48°32' W 123°01'0 0.0
2017-Apr-24 05:29N 48°32' W 123°01'0 0.0
2017-Apr-24 04:50N 48°32' W 123°01'0 0.0
2017-Apr-24 04:29N 48°32' W 123°01'0 0.0
2017-Apr-24 03:59N 48°32' W 123°01'0 0.0
2017-Apr-24 03:29N 48°32' W 123°01'0 0.0
2017-Apr-24 02:59N 48°32' W 123°01'0 0.0
2017-Apr-24 02:29N 48°32' W 123°01'0 0.0
2017-Apr-24 01:59N 48°32' W 123°01'0 0.0
2017-Apr-24 00:23N 48°32' W 123°01'0 0.0
2017-Apr-24 00:00N 48°32' W 123°01'7 2.4
2017-Apr-23 21:09N 48°37' W 123°09'0 0.1
2017-Apr-23 21:00N 48°37' W 123°09'  
2017-Apr-17 16:10N 48°36' W 122°49'1 7.2
2017-Apr-17 15:59N 48°35' W 122°51'7 4.9
2017-Apr-17 14:40N 48°33' W 123°00'1 5.1
2017-Apr-17 14:30N 48°32' W 123°01'0 0.0
2017-Apr-17 13:29N 48°32' W 123°01'0 0.0
2017-Apr-17 12:59N 48°32' W 123°01'0 0.0
2017-Apr-17 12:29N 48°32' W 123°01'0 0.0
2017-Apr-17 11:59N 48°32' W 123°01'0 0.0
2017-Apr-17 11:29N 48°32' W 123°01'0 0.0
2017-Apr-17 10:53N 48°32' W 123°01'0 0.0
2017-Apr-17 10:29N 48°32' W 123°01'0 0.0
2017-Apr-17 09:59N 48°32' W 123°01'0 0.0
2017-Apr-17 09:29N 48°32' W 123°01'0 0.0
2017-Apr-17 08:53N 48°32' W 123°01'0 0.0
2017-Apr-17 08:29N 48°32' W 123°01'0 0.0
2017-Apr-17 07:59N 48°32' W 123°01'0 0.0
2017-Apr-17 07:29N 48°32' W 123°01'0 0.0
2017-Apr-17 06:59N 48°32' W 123°01'0 0.0
2017-Apr-17 06:29N 48°32' W 123°01'0 0.0
2017-Apr-17 05:59N 48°32' W 123°01'0 0.0
2017-Apr-17 05:29N 48°32' W 123°01'0 0.0
2017-Apr-17 04:59N 48°32' W 123°01'0 0.0
2017-Apr-17 04:29N 48°32' W 123°01'0 0.0
2017-Apr-17 03:53N 48°32' W 123°01'0 0.0
2017-Apr-17 03:29N 48°32' W 123°01'0 0.0
2017-Apr-17 02:59N 48°32' W 123°01'0 0.0
2017-Apr-17 02:29N 48°32' W 123°01'0 0.0
2017-Apr-17 01:59N 48°32' W 123°01'0 0.0
2017-Apr-17 01:29N 48°32' W 123°01'0 0.0
2017-Apr-17 00:59N 48°32' W 123°01'0 0.0
2017-Apr-17 00:29N 48°32' W 123°01'0 0.0
2017-Apr-16 23:59N 48°32' W 123°01'0 0.0
2017-Apr-16 23:29N 48°32' W 123°01'0 0.0
2017-Apr-16 22:56N 48°32' W 123°01'0 0.0
2017-Apr-16 22:23N 48°32' W 123°01'0 0.0
2017-Apr-16 22:00N 48°32' W 123°01'0 0.0
2017-Apr-16 21:30N 48°32' W 123°01'8 4.9
2017-Apr-16 19:52N 48°38' W 123°10'2 4.9
2017-Apr-16 19:26N 48°36' W 123°12'2 1.1
2017-Apr-16 17:38N 48°37' W 123°09'0 0.0
2017-Apr-16 07:43N 48°37' W 123°10'0 0.0
2017-Apr-16 07:16N 48°37' W 123°10'0 0.0
2017-Apr-15 22:38N 48°37' W 123°09'0 0.0
2017-Apr-15 22:15N 48°37' W 123°09'1 1.9
2017-Apr-15 21:55N 48°37' W 123°10'  

Dump ship's entire track history